sensor_id;sensor_type;location;lat;lon;timestamp;pressure;altitude;pressure_sealevel;temperature;humidity
3434;BME280;1730;41.932;25.548;2023-04-01T00:00:55;98354.50;;;13.04;100.00
3434;BME280;1730;41.932;25.548;2023-04-01T00:03:22;98346.97;;;13.00;100.00
3434;BME280;1730;41.932;25.548;2023-04-01T00:05:48;98348.97;;;12.91;100.00
3434;BME280;1730;41.932;25.548;2023-04-01T00:08:14;98351.75;;;12.77;100.00
3434;BME280;1730;41.932;25.548;2023-04-01T00:10:39;98367.97;;;12.77;100.00
3434;BME280;1730;41.932;25.548;2023-04-01T00:13:05;98335.25;;;12.72;100.00
3434;BME280;1730;41.932;25.548;2023-04-01T00:15:31;98362.22;;;12.65;100.00
3434;BME280;1730;41.932;25.548;2023-04-01T00:17:56;98334.31;;;12.64;100.00
3434;BME280;1730;41.932;25.548;2023-04-01T00:20:22;98376.81;;;12.85;100.00
3434;BME280;1730;41.932;25.548;2023-04-01T00:22:48;98320.09;;;12.56;100.00
3434;BME280;1730;41.932;25.548;2023-04-01T00:25:14;98370.03;;;12.96;100.00
3434;BME280;1730;41.932;25.548;2023-04-01T00:27:40;98364.06;;;12.64;100.00
3434;BME280;1730;41.932;25.548;2023-04-01T00:30:06;98260.88;;;12.25;100.00
3434;BME280;1730;41.932;25.548;2023-04-01T00:32:33;98357.34;;;12.75;100.00
3434;BME280;1730;41.932;25.548;2023-04-01T00:34:58;98252.59;;;12.27;100.00
3434;BME280;1730;41.932;25.548;2023-04-01T00:37:25;98344.97;;;12.87;100.00
3434;BME280;1730;41.932;25.548;2023-04-01T00:39:51;98347.09;;;12.92;100.00
3434;BME280;1730;41.932;25.548;2023-04-01T00:42:17;98354.44;;;12.77;100.00
3434;BME280;1730;41.932;25.548;2023-04-01T00:44:47;98328.66;;;12.59;100.00
3434;BME280;1730;41.932;25.548;2023-04-01T00:47:13;98348.81;;;12.78;100.00
3434;BME280;1730;41.932;25.548;2023-04-01T00:49:44;98336.91;;;12.73;100.00
3434;BME280;1730;41.932;25.548;2023-04-01T00:52:13;98344.56;;;12.69;100.00
3434;BME280;1730;41.932;25.548;2023-04-01T00:54:41;98278.00;;;12.11;100.00
3434;BME280;1730;41.932;25.548;2023-04-01T00:57:12;98349.13;;;12.69;100.00
3434;BME280;1730;41.932;25.548;2023-04-01T00:59:45;98295.44;;;12.65;100.00
3434;BME280;1730;41.932;25.548;2023-04-01T01:02:13;98336.47;;;12.90;100.00
3434;BME280;1730;41.932;25.548;2023-04-01T01:04:40;98339.81;;;12.92;100.00
3434;BME280;1730;41.932;25.548;2023-04-01T01:08:06;98284.94;;;12.77;100.00
3434;BME280;1730;41.932;25.548;2023-04-01T01:12:40;98348.25;;;12.61;100.00
3434;BME280;1730;41.932;25.548;2023-04-01T01:15:47;98353.25;;;12.64;100.00
3434;BME280;1730;41.932;25.548;2023-04-01T01:18:53;98316.50;;;12.34;100.00
3434;BME280;1730;41.932;25.548;2023-04-01T01:21:30;98355.06;;;12.57;100.00
3434;BME280;1730;41.932;25.548;2023-04-01T01:37:19;98375.41;;;12.53;100.00
3434;BME280;1730;41.932;25.548;2023-04-01T01:39:52;98364.03;;;12.43;100.00
3434;BME280;1730;41.932;25.548;2023-04-01T01:42:20;98368.59;;;12.43;100.00
3434;BME280;1730;41.932;25.548;2023-04-01T01:44:49;98363.09;;;12.51;100.00
3434;BME280;1730;41.932;25.548;2023-04-01T01:47:16;98319.50;;;12.25;100.00
3434;BME280;1730;41.932;25.548;2023-04-01T01:49:44;98349.41;;;12.38;100.00
3434;BME280;1730;41.932;25.548;2023-04-01T01:52:12;98367.75;;;12.42;100.00
3434;BME280;1730;41.932;25.548;2023-04-01T01:54:52;98372.16;;;12.43;100.00
3434;BME280;1730;41.932;25.548;2023-04-01T01:57:28;98257.25;;;11.38;100.00
3434;BME280;1730;41.932;25.548;2023-04-01T01:59:59;98272.59;;;11.38;100.00
3434;BME280;1730;41.932;25.548;2023-04-01T02:02:27;98244.12;;;11.20;100.00
3434;BME280;1730;41.932;25.548;2023-04-01T02:04:56;98215.91;;;10.79;100.00
3434;BME280;1730;41.932;25.548;2023-04-01T02:07:31;98391.66;;;12.09;100.00
3434;BME280;1730;41.932;25.548;2023-04-01T02:09:58;98317.19;;;11.63;100.00
3434;BME280;1730;41.932;25.548;2023-04-01T02:12:24;98381.53;;;11.97;100.00
3434;BME280;1730;41.932;25.548;2023-04-01T02:14:57;98381.78;;;11.50;100.00
3434;BME280;1730;41.932;25.548;2023-04-01T02:17:30;98409.28;;;11.68;100.00
3434;BME280;1730;41.932;25.548;2023-04-01T02:20:04;98300.59;;;11.22;100.00
3434;BME280;1730;41.932;25.548;2023-04-01T02:22:34;98390.66;;;12.10;100.00
3434;BME280;1730;41.932;25.548;2023-04-01T02:25:08;98375.41;;;12.39;100.00
3434;BME280;1730;41.932;25.548;2023-04-01T02:27:34;98347.28;;;12.33;100.00
3434;BME280;1730;41.932;25.548;2023-04-01T02:30:00;98327.38;;;11.90;100.00
3434;BME280;1730;41.932;25.548;2023-04-01T02:32:27;98363.91;;;11.86;100.00
3434;BME280;1730;41.932;25.548;2023-04-01T02:34:55;98300.91;;;11.56;100.00
3434;BME280;1730;41.932;25.548;2023-04-01T02:37:21;98365.66;;;12.08;100.00
3434;BME280;1730;41.932;25.548;2023-04-01T02:39:46;98358.47;;;12.30;100.00
3434;BME280;1730;41.932;25.548;2023-04-01T02:42:13;98343.81;;;12.39;100.00
3434;BME280;1730;41.932;25.548;2023-04-01T02:44:38;98347.03;;;12.28;100.00
3434;BME280;1730;41.932;25.548;2023-04-01T02:47:04;98341.53;;;12.07;100.00
3434;BME280;1730;41.932;25.548;2023-04-01T02:49:29;98347.03;;;11.99;100.00
3434;BME280;1730;41.932;25.548;2023-04-01T02:51:55;98280.25;;;11.49;100.00
3434;BME280;1730;41.932;25.548;2023-04-01T02:54:20;98344.38;;;11.84;100.00
3434;BME280;1730;41.932;25.548;2023-04-01T02:56:46;98333.63;;;11.91;100.00
3434;BME280;1730;41.932;25.548;2023-04-01T02:59:12;98338.56;;;11.72;100.00
3434;BME280;1730;41.932;25.548;2023-04-01T03:01:37;98335.12;;;11.79;100.00
3434;BME280;1730;41.932;25.548;2023-04-01T03:04:03;98239.56;;;11.21;100.00
3434;BME280;1730;41.932;25.548;2023-04-01T03:06:29;98324.34;;;11.93;100.00
3434;BME280;1730;41.932;25.548;2023-04-01T03:08:54;98336.91;;;12.01;100.00
3434;BME280;1730;41.932;25.548;2023-04-01T03:11:20;98315.75;;;11.90;100.00
3434;BME280;1730;41.932;25.548;2023-04-01T03:13:46;98322.25;;;11.81;100.00
3434;BME280;1730;41.932;25.548;2023-04-01T03:16:12;98328.31;;;11.83;100.00
3434;BME280;1730;41.932;25.548;2023-04-01T03:18:37;98310.44;;;11.96;100.00
3434;BME280;1730;41.932;25.548;2023-04-01T03:21:14;98310.25;;;11.98;100.00
3434;BME280;1730;41.932;25.548;2023-04-01T03:23:40;98302.16;;;11.98;100.00
3434;BME280;1730;41.932;25.548;2023-04-01T03:26:05;98295.75;;;11.84;100.00
3434;BME280;1730;41.932;25.548;2023-04-01T03:28:31;98305.41;;;11.93;100.00
3434;BME280;1730;41.932;25.548;2023-04-01T03:30:56;98316.69;;;11.82;100.00
3434;BME280;1730;41.932;25.548;2023-04-01T03:33:21;98314.72;;;11.91;100.00
3434;BME280;1730;41.932;25.548;2023-04-01T03:35:47;98230.53;;;11.43;100.00
3434;BME280;1730;41.932;25.548;2023-04-01T03:38:13;98305.41;;;11.79;100.00
3434;BME280;1730;41.932;25.548;2023-04-01T03:40:42;98299.19;;;11.93;100.00
3434;BME280;1730;41.932;25.548;2023-04-01T03:43:07;98289.78;;;11.89;100.00
3434;BME280;1730;41.932;25.548;2023-04-01T03:45:33;98299.47;;;11.83;100.00
3434;BME280;1730;41.932;25.548;2023-04-01T03:47:59;98277.56;;;11.78;100.00
3434;BME280;1730;41.932;25.548;2023-04-01T03:50:24;98310.22;;;11.68;100.00
3434;BME280;1730;41.932;25.548;2023-04-01T03:52:50;98313.41;;;11.57;100.00
3434;BME280;1730;41.932;25.548;2023-04-01T03:55:16;98308.50;;;11.76;100.00
3434;BME280;1730;41.932;25.548;2023-04-01T03:57:43;98313.03;;;11.90;100.00
3434;BME280;1730;41.932;25.548;2023-04-01T04:00:10;98304.41;;;11.80;100.00
3434;BME280;1730;41.932;25.548;2023-04-01T04:02:36;98325.69;;;11.60;100.00
3434;BME280;1730;41.932;25.548;2023-04-01T04:05:01;98334.25;;;11.11;100.00
3434;BME280;1730;41.932;25.548;2023-04-01T04:07:27;98354.13;;;11.33;100.00
3434;BME280;1730;41.932;25.548;2023-04-01T04:09:52;98340.00;;;11.46;100.00
3434;BME280;1730;41.932;25.548;2023-04-01T04:12:18;98336.47;;;11.60;100.00
3434;BME280;1730;41.932;25.548;2023-04-01T04:14:43;98345.81;;;11.20;100.00
3434;BME280;1730;41.932;25.548;2023-04-01T04:17:12;98369.75;;;11.00;100.00
3434;BME280;1730;41.932;25.548;2023-04-01T04:19:41;98378.97;;;11.06;100.00
3434;BME280;1730;41.932;25.548;2023-04-01T04:22:07;98379.53;;;11.01;100.00
3434;BME280;1730;41.932;25.548;2023-04-01T04:24:34;98340.09;;;10.77;100.00
3434;BME280;1730;41.932;25.548;2023-04-01T04:27:00;98386.13;;;10.99;100.00
3434;BME280;1730;41.932;25.548;2023-04-01T04:29:26;98191.03;;;10.01;100.00
3434;BME280;1730;41.932;25.548;2023-04-01T04:31:51;98366.28;;;10.92;100.00
3434;BME280;1730;41.932;25.548;2023-04-01T04:34:17;98417.59;;;11.06;100.00
3434;BME280;1730;41.932;25.548;2023-04-01T04:36:44;98403.91;;;11.08;100.00
3434;BME280;1730;41.932;25.548;2023-04-01T04:39:10;98391.69;;;11.20;100.00
3434;BME280;1730;41.932;25.548;2023-04-01T04:41:36;98354.03;;;11.26;100.00
3434;BME280;1730;41.932;25.548;2023-04-01T04:44:02;98356.69;;;11.12;100.00
3434;BME280;1730;41.932;25.548;2023-04-01T04:46:28;98374.16;;;11.01;100.00
3434;BME280;1730;41.932;25.548;2023-04-01T04:48:53;98391.66;;;11.05;100.00
3434;BME280;1730;41.932;25.548;2023-04-01T04:51:19;98385.16;;;11.14;100.00
3434;BME280;1730;41.932;25.548;2023-04-01T04:53:45;98387.56;;;11.09;100.00
3434;BME280;1730;41.932;25.548;2023-04-01T04:56:11;98389.22;;;11.10;100.00
3434;BME280;1730;41.932;25.548;2023-04-01T04:58:39;98105.34;;;9.28;100.00
3434;BME280;1730;41.932;25.548;2023-04-01T05:01:12;98401.22;;;10.85;100.00
3434;BME280;1730;41.932;25.548;2023-04-01T05:03:38;98396.97;;;11.13;100.00
3434;BME280;1730;41.932;25.548;2023-04-01T05:06:05;98405.06;;;11.13;100.00
3434;BME280;1730;41.932;25.548;2023-04-01T05:08:31;98395.56;;;11.40;100.00
3434;BME280;1730;41.932;25.548;2023-04-01T05:10:58;98375.56;;;11.87;100.00
3434;BME280;1730;41.932;25.548;2023-04-01T05:13:24;98336.12;;;12.57;100.00
3434;BME280;1730;41.932;25.548;2023-04-01T05:15:50;98295.09;;;13.18;100.00
3434;BME280;1730;41.932;25.548;2023-04-01T05:18:15;98256.59;;;13.50;100.00
3434;BME280;1730;41.932;25.548;2023-04-01T05:20:47;98114.84;;;13.30;100.00
3434;BME280;1730;41.932;25.548;2023-04-01T05:23:13;98206.91;;;14.31;100.00
3434;BME280;1730;41.932;25.548;2023-04-01T05:25:38;98204.81;;;14.27;100.00
3434;BME280;1730;41.932;25.548;2023-04-01T05:28:04;98213.62;;;13.40;100.00
3434;BME280;1730;41.932;25.548;2023-04-01T05:30:29;98221.25;;;13.24;100.00
3434;BME280;1730;41.932;25.548;2023-04-01T05:32:55;98239.13;;;12.97;100.00
3434;BME280;1730;41.932;25.548;2023-04-01T05:35:20;98216.28;;;12.78;100.00
3434;BME280;1730;41.932;25.548;2023-04-01T05:37:46;98239.38;;;13.02;100.00
3434;BME280;1730;41.932;25.548;2023-04-01T05:40:20;98229.75;;;12.99;100.00
3434;BME280;1730;41.932;25.548;2023-04-01T05:42:46;98235.38;;;12.49;100.00
3434;BME280;1730;41.932;25.548;2023-04-01T05:45:11;98064.78;;;12.78;100.00
3434;BME280;1730;41.932;25.548;2023-04-01T05:47:40;97926.59;;;13.27;100.00
3434;BME280;1730;41.932;25.548;2023-04-01T05:50:06;98187.69;;;15.45;100.00
3434;BME280;1730;41.932;25.548;2023-04-01T05:52:31;98169.50;;;15.45;100.00
3434;BME280;1730;41.932;25.548;2023-04-01T05:54:57;98171.44;;;15.25;100.00
3434;BME280;1730;41.932;25.548;2023-04-01T05:57:23;98170.03;;;15.87;100.00
3434;BME280;1730;41.932;25.548;2023-04-01T05:59:49;98165.31;;;15.62;100.00
3434;BME280;1730;41.932;25.548;2023-04-01T06:02:17;98161.69;;;15.82;100.00
3434;BME280;1730;41.932;25.548;2023-04-01T06:04:42;98179.84;;;15.88;100.00
3434;BME280;1730;41.932;25.548;2023-04-01T06:07:13;97928.87;;;14.42;100.00
3434;BME280;1730;41.932;25.548;2023-04-01T06:09:39;98163.22;;;16.96;100.00
3434;BME280;1730;41.932;25.548;2023-04-01T06:17:26;98163.03;;;17.16;100.00
3434;BME280;1730;41.932;25.548;2023-04-01T06:27:45;98090.97;;;17.12;100.00
3434;BME280;1730;41.932;25.548;2023-04-01T06:38:36;98132.25;;;16.91;100.00
3434;BME280;1730;41.932;25.548;2023-04-01T06:46:58;98136.13;;;16.20;100.00
3434;BME280;1730;41.932;25.548;2023-04-01T06:54:43;98109.53;;;16.54;100.00
3434;BME280;1730;41.932;25.548;2023-04-01T06:57:25;98096.41;;;16.76;100.00
3434;BME280;1730;41.932;25.548;2023-04-01T06:59:57;97952.44;;;15.75;100.00
3434;BME280;1730;41.932;25.548;2023-04-01T07:02:25;98104.59;;;16.44;100.00
3434;BME280;1730;41.932;25.548;2023-04-01T07:04:55;98116.72;;;16.42;100.00
3434;BME280;1730;41.932;25.548;2023-04-01T07:07:41;98099.56;;;17.16;100.00
3434;BME280;1730;41.932;25.548;2023-04-01T07:10:23;98104.22;;;16.65;100.00
3434;BME280;1730;41.932;25.548;2023-04-01T07:12:56;98090.13;;;17.11;100.00
3434;BME280;1730;41.932;25.548;2023-04-01T07:15:36;98047.19;;;17.13;100.00
3434;BME280;1730;41.932;25.548;2023-04-01T07:18:21;98085.63;;;17.42;100.00
3434;BME280;1730;41.932;25.548;2023-04-01T07:20:51;98085.03;;;17.58;100.00
3434;BME280;1730;41.932;25.548;2023-04-01T07:23:23;98081.34;;;17.64;100.00
3434;BME280;1730;41.932;25.548;2023-04-01T07:26:00;98082.22;;;17.28;100.00
3434;BME280;1730;41.932;25.548;2023-04-01T07:28:32;98067.44;;;17.72;100.00
3434;BME280;1730;41.932;25.548;2023-04-01T07:34:05;98053.81;;;18.14;100.00
3434;BME280;1730;41.932;25.548;2023-04-01T07:36:55;98050.66;;;18.40;100.00
3434;BME280;1730;41.932;25.548;2023-04-01T07:39:28;98057.63;;;18.24;100.00
3434;BME280;1730;41.932;25.548;2023-04-01T07:44:59;98042.97;;;19.07;100.00
3434;BME280;1730;41.932;25.548;2023-04-01T07:48:04;98042.53;;;19.38;100.00
3434;BME280;1730;41.932;25.548;2023-04-01T07:50:49;98035.09;;;19.62;100.00
3434;BME280;1730;41.932;25.548;2023-04-01T07:53:28;98023.06;;;19.74;100.00
3434;BME280;1730;41.932;25.548;2023-04-01T07:56:16;98033.06;;;19.69;100.00
3434;BME280;1730;41.932;25.548;2023-04-01T08:02:02;98010.59;;;20.12;100.00
3434;BME280;1730;41.932;25.548;2023-04-01T08:23:36;97943.37;;;20.54;100.00
3434;BME280;1730;41.932;25.548;2023-04-01T08:26:10;97858.97;;;20.13;100.00
3434;BME280;1730;41.932;25.548;2023-04-01T08:28:45;97936.88;;;20.22;100.00
3434;BME280;1730;41.932;25.548;2023-04-01T08:31:39;97798.37;;;19.37;100.00
3434;BME280;1730;41.932;25.548;2023-04-01T08:34:20;97951.31;;;20.34;100.00
3434;BME280;1730;41.932;25.548;2023-04-01T08:36:53;97878.47;;;20.33;100.00
3434;BME280;1730;41.932;25.548;2023-04-01T08:39:36;97928.72;;;20.82;100.00
3434;BME280;1730;41.932;25.548;2023-04-01T08:45:16;97928.09;;;20.75;100.00
3434;BME280;1730;41.932;25.548;2023-04-01T08:54:12;97851.91;;;20.17;100.00
3434;BME280;1730;41.932;25.548;2023-04-01T08:56:50;97937.16;;;20.59;100.00
3434;BME280;1730;41.932;25.548;2023-04-01T08:59:45;97929.69;;;20.71;100.00
3434;BME280;1730;41.932;25.548;2023-04-01T09:02:46;97908.09;;;20.58;100.00
3434;BME280;1730;41.932;25.548;2023-04-01T09:16:28;97889.00;;;20.63;100.00
3434;BME280;1730;41.932;25.548;2023-04-01T09:22:26;97842.78;;;20.66;100.00
3434;BME280;1730;41.932;25.548;2023-04-01T09:25:15;97863.00;;;20.87;100.00
3434;BME280;1730;41.932;25.548;2023-04-01T09:27:54;97870.03;;;20.78;100.00
3434;BME280;1730;41.932;25.548;2023-04-01T09:36:47;97847.22;;;20.73;100.00
3434;BME280;1730;41.932;25.548;2023-04-01T09:42:53;97740.62;;;20.71;100.00
3434;BME280;1730;41.932;25.548;2023-04-01T09:57:39;97784.28;;;21.31;100.00
3434;BME280;1730;41.932;25.548;2023-04-01T10:00:43;97769.16;;;21.02;100.00
3434;BME280;1730;41.932;25.548;2023-04-01T10:14:45;97755.94;;;21.21;100.00
3434;BME280;1730;41.932;25.548;2023-04-01T10:36:56;97720.81;;;20.91;100.00
3434;BME280;1730;41.932;25.548;2023-04-01T10:48:31;97738.37;;;21.53;100.00
3434;BME280;1730;41.932;25.548;2023-04-01T10:56:59;97734.69;;;22.22;100.00
3434;BME280;1730;41.932;25.548;2023-04-01T11:05:23;97708.34;;;22.26;100.00
3434;BME280;1730;41.932;25.548;2023-04-01T11:19:19;97696.78;;;21.67;100.00
3434;BME280;1730;41.932;25.548;2023-04-01T11:22:00;97697.41;;;21.42;100.00
3434;BME280;1730;41.932;25.548;2023-04-01T11:24:56;97702.22;;;21.25;100.00
3434;BME280;1730;41.932;25.548;2023-04-01T11:38:23;97468.75;;;19.42;100.00
3434;BME280;1730;41.932;25.548;2023-04-01T11:41:02;97682.28;;;20.44;100.00
3434;BME280;1730;41.932;25.548;2023-04-01T11:49:49;97657.03;;;20.42;100.00
3434;BME280;1730;41.932;25.548;2023-04-01T12:00:47;97644.94;;;20.38;100.00
3434;BME280;1730;41.932;25.548;2023-04-01T12:14:26;97605.34;;;20.23;100.00
3434;BME280;1730;41.932;25.548;2023-04-01T12:19:44;97572.84;;;20.91;100.00
3434;BME280;1730;41.932;25.548;2023-04-01T12:25:35;97595.84;;;20.90;100.00
3434;BME280;1730;41.932;25.548;2023-04-01T12:28:10;97599.00;;;21.08;100.00
3434;BME280;1730;41.932;25.548;2023-04-01T12:31:02;97477.28;;;21.04;100.00
3434;BME280;1730;41.932;25.548;2023-04-01T12:36:48;97576.28;;;22.63;97.54
3434;BME280;1730;41.932;25.548;2023-04-01T12:53:31;97547.41;;;22.65;88.12
3434;BME280;1730;41.932;25.548;2023-04-01T12:56:09;97535.34;;;22.46;91.36
3434;BME280;1730;41.932;25.548;2023-04-01T12:59:03;97533.94;;;22.43;90.37
3434;BME280;1730;41.932;25.548;2023-04-01T13:10:20;97520.22;;;22.89;85.23
3434;BME280;1730;41.932;25.548;2023-04-01T13:13:31;97397.38;;;22.69;82.29
3434;BME280;1730;41.932;25.548;2023-04-01T13:16:14;97504.56;;;22.49;88.76
3434;BME280;1730;41.932;25.548;2023-04-01T13:27:01;97489.88;;;21.73;100.00
3434;BME280;1730;41.932;25.548;2023-04-01T13:33:07;97472.97;;;22.16;98.33
3434;BME280;1730;41.932;25.548;2023-04-01T13:38:12;97474.97;;;21.38;100.00
3434;BME280;1730;41.932;25.548;2023-04-01T13:43:24;97480.59;;;21.79;100.00
3434;BME280;1730;41.932;25.548;2023-04-01T14:00:54;97416.78;;;21.21;100.00
3434;BME280;1730;41.932;25.548;2023-04-01T14:06:02;97440.72;;;21.41;100.00
3434;BME280;1730;41.932;25.548;2023-04-01T14:09:00;97445.44;;;21.71;100.00
3434;BME280;1730;41.932;25.548;2023-04-01T14:11:58;97445.16;;;21.62;100.00
3434;BME280;1730;41.932;25.548;2023-04-01T14:14:36;97446.72;;;21.38;100.00
3434;BME280;1730;41.932;25.548;2023-04-01T14:28:28;97437.47;;;21.69;100.00
3434;BME280;1730;41.932;25.548;2023-04-01T14:47:51;97632.78;;;18.86;100.00
3434;BME280;1730;41.932;25.548;2023-04-01T14:50:28;97671.69;;;18.20;100.00
3434;BME280;1730;41.932;25.548;2023-04-01T14:53:11;97699.59;;;16.41;100.00
3434;BME280;1730;41.932;25.548;2023-04-01T15:03:32;97749.28;;;16.37;100.00
3434;BME280;1730;41.932;25.548;2023-04-01T15:11:57;97777.50;;;15.69;100.00
3434;BME280;1730;41.932;25.548;2023-04-01T15:25:05;97836.66;;;15.43;100.00
3434;BME280;1730;41.932;25.548;2023-04-01T15:28:35;97843.66;;;15.57;100.00
3434;BME280;1730;41.932;25.548;2023-04-01T15:30:48;97841.12;;;15.62;100.00
3434;BME280;1730;41.932;25.548;2023-04-01T15:41:23;97827.50;;;15.87;100.00
3434;BME280;1730;41.932;25.548;2023-04-01T15:43:53;97813.53;;;15.83;100.00
3434;BME280;1730;41.932;25.548;2023-04-01T15:46:46;97788.88;;;15.60;100.00
3434;BME280;1730;41.932;25.548;2023-04-01T15:49:37;97824.47;;;15.95;100.00
3434;BME280;1730;41.932;25.548;2023-04-01T16:03:16;97890.47;;;16.02;100.00
3434;BME280;1730;41.932;25.548;2023-04-01T16:06:17;97886.56;;;15.98;100.00
3434;BME280;1730;41.932;25.548;2023-04-01T16:09:10;97880.53;;;15.96;100.00
3434;BME280;1730;41.932;25.548;2023-04-01T16:25:46;97831.13;;;15.99;100.00
3434;BME280;1730;41.932;25.548;2023-04-01T16:28:23;97863.16;;;16.15;100.00
3434;BME280;1730;41.932;25.548;2023-04-01T16:31:00;97874.56;;;16.23;100.00
3434;BME280;1730;41.932;25.548;2023-04-01T16:36:32;97833.22;;;16.15;100.00
3434;BME280;1730;41.932;25.548;2023-04-01T16:44:49;97897.16;;;16.24;100.00
3434;BME280;1730;41.932;25.548;2023-04-01T16:47:40;97909.50;;;16.27;100.00
3434;BME280;1730;41.932;25.548;2023-04-01T16:50:22;97552.03;;;14.22;100.00
3434;BME280;1730;41.932;25.548;2023-04-01T16:58:56;97934.75;;;15.84;100.00
3434;BME280;1730;41.932;25.548;2023-04-01T17:01:30;97927.63;;;15.90;100.00
3434;BME280;1730;41.932;25.548;2023-04-01T17:07:17;97980.66;;;15.99;100.00
3434;BME280;1730;41.932;25.548;2023-04-01T17:15:43;98072.09;;;15.93;100.00
3434;BME280;1730;41.932;25.548;2023-04-01T17:23:53;98209.56;;;15.83;100.00
3434;BME280;1730;41.932;25.548;2023-04-01T17:36:40;98339.97;;;14.77;100.00
3434;BME280;1730;41.932;25.548;2023-04-01T17:42:16;98345.59;;;14.76;100.00
3434;BME280;1730;41.932;25.548;2023-04-01T17:50:35;98330.03;;;15.17;100.00
3434;BME280;1730;41.932;25.548;2023-04-01T17:53:42;98310.16;;;15.10;100.00
3434;BME280;1730;41.932;25.548;2023-04-01T18:10:35;98214.53;;;14.95;100.00
3434;BME280;1730;41.932;25.548;2023-04-01T18:13:34;98295.75;;;15.16;100.00
3434;BME280;1730;41.932;25.548;2023-04-01T18:16:26;98267.78;;;15.36;100.00
3434;BME280;1730;41.932;25.548;2023-04-01T18:21:48;98226.59;;;15.19;100.00
3434;BME280;1730;41.932;25.548;2023-04-01T18:24:24;98245.63;;;15.12;100.00
3434;BME280;1730;41.932;25.548;2023-04-01T18:27:22;98258.59;;;15.17;100.00
3434;BME280;1730;41.932;25.548;2023-04-01T18:30:11;98251.88;;;15.06;100.00
3434;BME280;1730;41.932;25.548;2023-04-01T18:32:58;98263.37;;;15.02;100.00
3434;BME280;1730;41.932;25.548;2023-04-01T18:35:34;98292.22;;;15.16;100.00
3434;BME280;1730;41.932;25.548;2023-04-01T18:38:18;98307.22;;;14.99;100.00
3434;BME280;1730;41.932;25.548;2023-04-01T18:40:55;98331.06;;;15.03;100.00
3434;BME280;1730;41.932;25.548;2023-04-01T18:43:33;98310.59;;;15.07;100.00
3434;BME280;1730;41.932;25.548;2023-04-01T18:46:12;98335.44;;;14.91;100.00
3434;BME280;1730;41.932;25.548;2023-04-01T18:48:56;98373.03;;;15.07;100.00
3434;BME280;1730;41.932;25.548;2023-04-01T18:51:48;98356.91;;;14.93;100.00
3434;BME280;1730;41.932;25.548;2023-04-01T18:54:30;98414.47;;;14.75;100.00
3434;BME280;1730;41.932;25.548;2023-04-01T18:57:13;98418.63;;;14.64;100.00
3434;BME280;1730;41.932;25.548;2023-04-01T18:59:43;98493.84;;;14.83;100.00
3434;BME280;1730;41.932;25.548;2023-04-01T19:02:38;98506.41;;;14.84;100.00
3434;BME280;1730;41.932;25.548;2023-04-01T19:05:11;98478.41;;;14.77;100.00
3434;BME280;1730;41.932;25.548;2023-04-01T19:07:49;98478.22;;;14.92;100.00
3434;BME280;1730;41.932;25.548;2023-04-01T19:19:24;98344.78;;;14.88;100.00
3434;BME280;1730;41.932;25.548;2023-04-01T19:22:32;98313.47;;;14.79;100.00
3434;BME280;1730;41.932;25.548;2023-04-01T19:25:07;98238.09;;;14.81;100.00
3434;BME280;1730;41.932;25.548;2023-04-01T19:27:42;98225.78;;;14.79;100.00
3434;BME280;1730;41.932;25.548;2023-04-01T19:33:16;98223.25;;;14.58;100.00
3434;BME280;1730;41.932;25.548;2023-04-01T19:35:59;98205.31;;;14.57;100.00
3434;BME280;1730;41.932;25.548;2023-04-01T19:41:39;98158.09;;;14.31;100.00
3434;BME280;1730;41.932;25.548;2023-04-01T19:46:46;98138.88;;;14.26;100.00
3434;BME280;1730;41.932;25.548;2023-04-01T19:57:46;98122.78;;;13.85;100.00
3434;BME280;1730;41.932;25.548;2023-04-01T20:00:31;98106.91;;;13.76;100.00
3434;BME280;1730;41.932;25.548;2023-04-01T20:03:11;98108.72;;;13.62;100.00
3434;BME280;1730;41.932;25.548;2023-04-01T20:11:18;98028.09;;;13.58;100.00
3434;BME280;1730;41.932;25.548;2023-04-01T20:19:45;98037.25;;;13.57;100.00
3434;BME280;1730;41.932;25.548;2023-04-01T20:25:12;98039.56;;;13.60;100.00
3434;BME280;1730;41.932;25.548;2023-04-01T20:27:53;98009.09;;;13.38;100.00
3434;BME280;1730;41.932;25.548;2023-04-01T20:33:28;98038.88;;;13.44;100.00
3434;BME280;1730;41.932;25.548;2023-04-01T21:13:01;98050.09;;;12.53;100.00
3434;BME280;1730;41.932;25.548;2023-04-01T21:21:51;98071.41;;;12.13;100.00
3434;BME280;1730;41.932;25.548;2023-04-01T21:27:13;98096.41;;;12.22;100.00
3434;BME280;1730;41.932;25.548;2023-04-01T21:35:31;98123.25;;;12.24;100.00
3434;BME280;1730;41.932;25.548;2023-04-01T21:38:29;98122.69;;;12.28;100.00
3434;BME280;1730;41.932;25.548;2023-04-01T21:44:20;98128.66;;;12.24;100.00
3434;BME280;1730;41.932;25.548;2023-04-01T21:47:19;98134.19;;;12.15;100.00
3434;BME280;1730;41.932;25.548;2023-04-01T22:03:54;98070.56;;;11.70;100.00
3434;BME280;1730;41.932;25.548;2023-04-01T22:09:29;98117.25;;;12.07;100.00
3434;BME280;1730;41.932;25.548;2023-04-01T22:12:07;98080.69;;;12.04;100.00
3434;BME280;1730;41.932;25.548;2023-04-01T22:14:52;98121.16;;;11.98;100.00
3434;BME280;1730;41.932;25.548;2023-04-01T22:17:25;98123.47;;;12.01;100.00
3434;BME280;1730;41.932;25.548;2023-04-01T22:28:07;98029.78;;;11.44;100.00
3434;BME280;1730;41.932;25.548;2023-04-01T22:30:50;98075.38;;;11.54;100.00
3434;BME280;1730;41.932;25.548;2023-04-01T22:33:20;98129.94;;;11.85;100.00
3434;BME280;1730;41.932;25.548;2023-04-01T22:35:57;98139.94;;;11.85;100.00
3434;BME280;1730;41.932;25.548;2023-04-01T22:38:49;97892.16;;;10.30;100.00
3434;BME280;1730;41.932;25.548;2023-04-01T22:41:34;98122.31;;;11.89;100.00
3434;BME280;1730;41.932;25.548;2023-04-01T22:44:03;97957.84;;;10.79;100.00
3434;BME280;1730;41.932;25.548;2023-04-01T22:52:08;98110.84;;;11.87;100.00
3434;BME280;1730;41.932;25.548;2023-04-01T22:54:45;98127.72;;;11.89;100.00
3434;BME280;1730;41.932;25.548;2023-04-01T22:58:18;98118.19;;;11.93;100.00
3434;BME280;1730;41.932;25.548;2023-04-01T23:00:23;98061.44;;;11.71;100.00
3434;BME280;1730;41.932;25.548;2023-04-01T23:03:00;98117.75;;;12.10;100.00
3434;BME280;1730;41.932;25.548;2023-04-01T23:05:30;98128.00;;;12.22;100.00